This is the latest recevied weather packets stored in our database for station/object N7CEE. If no packets are shown the sender has not sent any weather packets the latest 10 day(s).
| Time | Temp. | Humidity | Pressure | Rain* | Wind** | Luminosity | Snow |
|---|---|---|---|---|---|---|---|
| 1777345728 | 6.11° C | 36% | 1020.9 hPa | 0 mm | - | 0 W/m² | - |
| 1777345121 | 6.11° C | 36% | 1020.8 hPa | 0 mm | - | 0 W/m² | - |
| 1777344818 | 6.67° C | 35% | 1020.9 hPa | 0 mm | - | 0 W/m² | - |
| 1777344513 | 6.67° C | 35% | 1020.9 hPa | 0 mm | - | 0 W/m² | - |
| 1777343908 | 7.22° C | 33% | 1020.7 hPa | 0 mm | - | 0 W/m² | - |
| 1777343606 | 7.22° C | 33% | 1020.7 hPa | 0 mm | - | 0 W/m² | - |
| 1777343303 | 7.78° C | 32% | 1020.5 hPa | 0 mm | - | 0 W/m² | - |
| 1777343001 | 7.78° C | 32% | 1020.4 hPa | 0 mm | - | 0 W/m² | - |
| 1777342698 | 7.78° C | 31% | 1020.3 hPa | 0 mm | - | 1 W/m² | - |
| 1777342092 | 7.78° C | 31% | 1020.2 hPa | 0 mm | - | 3 W/m² | - |
| 1777341484 | 8.33° C | 31% | 1020 hPa | 0 mm | - | 6 W/m² | - |
| 1777341181 | 8.33° C | 31% | 1020.2 hPa | 0 mm | - | 8 W/m² | - |
| 1777340877 | 8.89° C | 30% | 1020 hPa | 0 mm | - | 10 W/m² | - |
| 1777339667 | 9.44° C | 30% | 1019.7 hPa | 0 mm | - | 18 W/m² | - |
| 1777339063 | 9.44° C | 29% | 1019.7 hPa | 0 mm | - | 21 W/m² | - |
| 1777338153 | 10° C | 29% | 1019.8 hPa | 0 mm | - | 26 W/m² | - |
| 1777337547 | 10° C | 28% | 1019.7 hPa | 0 mm | - | 28 W/m² | - |
| 1777334824 | 11.67° C | 26% | 1019.4 hPa | 0 mm | - | 38 W/m² | - |
| 1777329377 | 12.78° C | 25% | 1018.9 hPa | 0 mm | - | 534 W/m² | - |
| 1777328469 | 12.22° C | 25% | 1019 hPa | 0 mm | - | 577 W/m² | - |
| 1777328168 | 12.78° C | 25% | 1019.3 hPa | 0 mm | - | 593 W/m² | - |
| 1777312716 | 12.22° C | 35% | 1020.2 hPa | 0 mm | - | 787 W/m² | - |
| 1777311504 | 10° C | 38% | 1020 hPa | 0 mm | - | 734 W/m² | - |
| 1777311201 | 10.56° C | 38% | 1019.9 hPa | 0 mm | - | 734 W/m² | - |
| 1777310899 | 10.56° C | 40% | 1020 hPa | 0 mm | - | 723 W/m² | - |
* Rain latest hour (hover to see other rain measurements)
** Current wind speed in m/s (hover to see current wind gust speed)